sensor_id;sensor_type;location;lat;lon;timestamp;P1;durP1;ratioP1;P2;durP2;ratioP2
14060;SDS011;7105;43.616;1.434;2022-10-16T00:01:34;10.77;;;8.10;;
14060;SDS011;7105;43.616;1.434;2022-10-16T00:04:00;9.17;;;8.27;;
14060;SDS011;7105;43.616;1.434;2022-10-16T00:06:27;10.73;;;8.13;;
14060;SDS011;7105;43.616;1.434;2022-10-16T00:08:53;9.50;;;8.50;;
14060;SDS011;7105;43.616;1.434;2022-10-16T00:13:46;11.33;;;8.37;;
14060;SDS011;7105;43.616;1.434;2022-10-16T00:16:13;8.93;;;7.57;;
14060;SDS011;7105;43.616;1.434;2022-10-16T00:18:39;10.03;;;8.63;;
14060;SDS011;7105;43.616;1.434;2022-10-16T00:21:06;9.70;;;7.67;;
14060;SDS011;7105;43.616;1.434;2022-10-16T00:23:34;9.87;;;8.00;;
14060;SDS011;7105;43.616;1.434;2022-10-16T00:26:02;10.40;;;7.93;;
14060;SDS011;7105;43.616;1.434;2022-10-16T00:28:31;11.07;;;8.57;;
14060;SDS011;7105;43.616;1.434;2022-10-16T00:30:57;10.07;;;8.27;;
14060;SDS011;7105;43.616;1.434;2022-10-16T00:33:23;9.53;;;8.40;;
14060;SDS011;7105;43.616;1.434;2022-10-16T00:35:49;12.27;;;8.30;;
14060;SDS011;7105;43.616;1.434;2022-10-16T00:38:15;12.00;;;9.13;;
14060;SDS011;7105;43.616;1.434;2022-10-16T00:40:41;11.10;;;8.30;;
14060;SDS011;7105;43.616;1.434;2022-10-16T00:43:54;10.00;;;8.87;;
14060;SDS011;7105;43.616;1.434;2022-10-16T00:46:13;11.50;;;8.83;;
14060;SDS011;7105;43.616;1.434;2022-10-16T00:48:39;10.37;;;9.20;;
14060;SDS011;7105;43.616;1.434;2022-10-16T00:51:05;11.37;;;9.00;;
14060;SDS011;7105;43.616;1.434;2022-10-16T00:53:32;9.37;;;8.47;;
14060;SDS011;7105;43.616;1.434;2022-10-16T00:55:59;10.03;;;8.83;;
14060;SDS011;7105;43.616;1.434;2022-10-16T00:58:25;12.67;;;8.97;;
14060;SDS011;7105;43.616;1.434;2022-10-16T01:00:51;9.90;;;8.67;;
14060;SDS011;7105;43.616;1.434;2022-10-16T01:03:27;10.87;;;9.23;;
14060;SDS011;7105;43.616;1.434;2022-10-16T01:06:00;12.40;;;8.23;;
14060;SDS011;7105;43.616;1.434;2022-10-16T01:08:44;10.50;;;8.63;;
14060;SDS011;7105;43.616;1.434;2022-10-16T01:11:33;13.83;;;8.97;;
14060;SDS011;7105;43.616;1.434;2022-10-16T01:14:22;11.80;;;8.80;;
14060;SDS011;7105;43.616;1.434;2022-10-16T01:16:53;10.10;;;8.53;;
14060;SDS011;7105;43.616;1.434;2022-10-16T01:19:27;10.73;;;8.73;;
14060;SDS011;7105;43.616;1.434;2022-10-16T01:21:57;9.87;;;8.60;;
14060;SDS011;7105;43.616;1.434;2022-10-16T01:24:32;13.03;;;9.00;;
14060;SDS011;7105;43.616;1.434;2022-10-16T01:29:49;10.13;;;8.17;;
14060;SDS011;7105;43.616;1.434;2022-10-16T01:35:53;9.57;;;8.30;;
14060;SDS011;7105;43.616;1.434;2022-10-16T01:38:12;11.03;;;8.37;;
14060;SDS011;7105;43.616;1.434;2022-10-16T01:40:40;9.63;;;8.63;;
14060;SDS011;7105;43.616;1.434;2022-10-16T01:43:20;14.00;;;8.83;;
14060;SDS011;7105;43.616;1.434;2022-10-16T01:45:51;12.63;;;8.60;;
14060;SDS011;7105;43.616;1.434;2022-10-16T01:48:18;9.80;;;8.80;;
14060;SDS011;7105;43.616;1.434;2022-10-16T01:50:49;12.93;;;9.00;;
14060;SDS011;7105;43.616;1.434;2022-10-16T01:53:31;12.27;;;9.27;;
14060;SDS011;7105;43.616;1.434;2022-10-16T01:55:57;11.13;;;9.03;;
14060;SDS011;7105;43.616;1.434;2022-10-16T01:58:25;11.47;;;8.70;;
14060;SDS011;7105;43.616;1.434;2022-10-16T02:00:52;11.43;;;8.97;;
14060;SDS011;7105;43.616;1.434;2022-10-16T02:03:20;10.47;;;8.80;;
14060;SDS011;7105;43.616;1.434;2022-10-16T02:08:23;15.37;;;9.20;;
14060;SDS011;7105;43.616;1.434;2022-10-16T02:10:54;10.83;;;8.63;;
14060;SDS011;7105;43.616;1.434;2022-10-16T02:13:22;15.80;;;9.67;;
14060;SDS011;7105;43.616;1.434;2022-10-16T02:15:51;13.00;;;9.70;;
14060;SDS011;7105;43.616;1.434;2022-10-16T02:18:17;14.03;;;9.13;;
14060;SDS011;7105;43.616;1.434;2022-10-16T02:20:57;11.83;;;9.00;;
14060;SDS011;7105;43.616;1.434;2022-10-16T02:26:28;12.37;;;9.80;;
14060;SDS011;7105;43.616;1.434;2022-10-16T02:29:14;11.63;;;9.50;;
14060;SDS011;7105;43.616;1.434;2022-10-16T02:31:44;14.10;;;9.73;;
14060;SDS011;7105;43.616;1.434;2022-10-16T02:34:13;13.17;;;10.20;;
14060;SDS011;7105;43.616;1.434;2022-10-16T02:36:41;12.93;;;9.93;;
14060;SDS011;7105;43.616;1.434;2022-10-16T02:39:07;15.77;;;10.40;;
14060;SDS011;7105;43.616;1.434;2022-10-16T02:41:34;14.00;;;10.27;;
14060;SDS011;7105;43.616;1.434;2022-10-16T02:44:00;14.70;;;10.17;;
14060;SDS011;7105;43.616;1.434;2022-10-16T02:46:26;13.40;;;10.13;;
14060;SDS011;7105;43.616;1.434;2022-10-16T02:48:51;13.27;;;10.23;;
14060;SDS011;7105;43.616;1.434;2022-10-16T02:51:17;13.77;;;10.33;;
14060;SDS011;7105;43.616;1.434;2022-10-16T02:53:43;15.60;;;10.47;;
14060;SDS011;7105;43.616;1.434;2022-10-16T02:56:09;12.70;;;10.53;;
14060;SDS011;7105;43.616;1.434;2022-10-16T02:58:34;12.13;;;10.93;;
14060;SDS011;7105;43.616;1.434;2022-10-16T03:01:00;18.03;;;11.03;;
14060;SDS011;7105;43.616;1.434;2022-10-16T03:03:26;18.27;;;11.30;;
14060;SDS011;7105;43.616;1.434;2022-10-16T03:05:51;18.30;;;11.47;;
14060;SDS011;7105;43.616;1.434;2022-10-16T03:08:17;14.80;;;11.67;;
14060;SDS011;7105;43.616;1.434;2022-10-16T03:10:48;13.20;;;10.50;;
14060;SDS011;7105;43.616;1.434;2022-10-16T03:13:14;15.77;;;11.40;;
14060;SDS011;7105;43.616;1.434;2022-10-16T03:15:40;12.27;;;10.90;;
14060;SDS011;7105;43.616;1.434;2022-10-16T03:18:06;13.70;;;10.60;;
14060;SDS011;7105;43.616;1.434;2022-10-16T03:20:31;15.10;;;10.90;;
14060;SDS011;7105;43.616;1.434;2022-10-16T03:22:57;14.87;;;11.27;;
14060;SDS011;7105;43.616;1.434;2022-10-16T03:25:23;16.60;;;11.53;;
14060;SDS011;7105;43.616;1.434;2022-10-16T03:27:49;16.03;;;11.33;;
14060;SDS011;7105;43.616;1.434;2022-10-16T03:30:14;14.43;;;11.60;;
14060;SDS011;7105;43.616;1.434;2022-10-16T03:32:41;17.70;;;12.40;;
14060;SDS011;7105;43.616;1.434;2022-10-16T03:35:08;14.00;;;11.83;;
14060;SDS011;7105;43.616;1.434;2022-10-16T03:37:34;14.57;;;11.70;;
14060;SDS011;7105;43.616;1.434;2022-10-16T03:39:59;15.87;;;11.87;;
14060;SDS011;7105;43.616;1.434;2022-10-16T03:42:25;14.60;;;11.83;;
14060;SDS011;7105;43.616;1.434;2022-10-16T03:44:51;16.27;;;12.03;;
14060;SDS011;7105;43.616;1.434;2022-10-16T03:47:17;17.53;;;12.80;;
14060;SDS011;7105;43.616;1.434;2022-10-16T03:49:46;15.80;;;11.17;;
14060;SDS011;7105;43.616;1.434;2022-10-16T03:52:12;17.47;;;13.00;;
14060;SDS011;7105;43.616;1.434;2022-10-16T03:54:38;16.47;;;12.73;;
14060;SDS011;7105;43.616;1.434;2022-10-16T03:57:04;15.50;;;12.20;;
14060;SDS011;7105;43.616;1.434;2022-10-16T03:59:29;19.67;;;13.37;;
14060;SDS011;7105;43.616;1.434;2022-10-16T04:01:55;18.53;;;12.47;;
14060;SDS011;7105;43.616;1.434;2022-10-16T04:04:20;16.77;;;11.80;;
14060;SDS011;7105;43.616;1.434;2022-10-16T04:06:46;17.70;;;13.20;;
14060;SDS011;7105;43.616;1.434;2022-10-16T04:09:12;18.13;;;13.33;;
14060;SDS011;7105;43.616;1.434;2022-10-16T04:11:37;18.60;;;12.10;;
14060;SDS011;7105;43.616;1.434;2022-10-16T04:14:04;16.00;;;12.90;;
14060;SDS011;7105;43.616;1.434;2022-10-16T04:16:29;16.53;;;13.13;;
14060;SDS011;7105;43.616;1.434;2022-10-16T04:18:55;18.73;;;13.90;;
14060;SDS011;7105;43.616;1.434;2022-10-16T04:21:20;15.83;;;12.53;;
14060;SDS011;7105;43.616;1.434;2022-10-16T04:23:47;14.10;;;12.50;;
14060;SDS011;7105;43.616;1.434;2022-10-16T04:26:13;18.10;;;12.73;;
14060;SDS011;7105;43.616;1.434;2022-10-16T04:28:39;20.93;;;13.80;;
14060;SDS011;7105;43.616;1.434;2022-10-16T04:31:05;14.87;;;13.27;;
14060;SDS011;7105;43.616;1.434;2022-10-16T04:33:31;18.47;;;12.80;;
14060;SDS011;7105;43.616;1.434;2022-10-16T04:35:58;15.47;;;12.97;;
14060;SDS011;7105;43.616;1.434;2022-10-16T04:38:25;16.27;;;13.13;;
14060;SDS011;7105;43.616;1.434;2022-10-16T04:40:51;16.37;;;12.53;;
14060;SDS011;7105;43.616;1.434;2022-10-16T04:43:17;17.60;;;12.47;;
14060;SDS011;7105;43.616;1.434;2022-10-16T04:45:43;15.27;;;12.30;;
14060;SDS011;7105;43.616;1.434;2022-10-16T04:48:08;15.67;;;12.47;;
14060;SDS011;7105;43.616;1.434;2022-10-16T04:50:34;16.57;;;12.53;;
14060;SDS011;7105;43.616;1.434;2022-10-16T04:53:00;19.23;;;12.80;;
14060;SDS011;7105;43.616;1.434;2022-10-16T04:55:25;14.87;;;12.53;;
14060;SDS011;7105;43.616;1.434;2022-10-16T04:57:51;15.97;;;11.73;;
14060;SDS011;7105;43.616;1.434;2022-10-16T05:00:17;14.47;;;11.90;;
14060;SDS011;7105;43.616;1.434;2022-10-16T05:02:43;13.37;;;11.97;;
14060;SDS011;7105;43.616;1.434;2022-10-16T05:05:08;15.00;;;12.57;;
14060;SDS011;7105;43.616;1.434;2022-10-16T05:07:34;17.38;;;12.48;;
14060;SDS011;7105;43.616;1.434;2022-10-16T05:10:00;14.33;;;12.33;;
14060;SDS011;7105;43.616;1.434;2022-10-16T05:12:25;14.20;;;11.93;;
14060;SDS011;7105;43.616;1.434;2022-10-16T05:14:51;15.68;;;12.73;;
14060;SDS011;7105;43.616;1.434;2022-10-16T05:17:17;16.53;;;13.30;;
14060;SDS011;7105;43.616;1.434;2022-10-16T05:19:42;16.83;;;11.70;;
14060;SDS011;7105;43.616;1.434;2022-10-16T05:22:08;18.30;;;12.47;;
14060;SDS011;7105;43.616;1.434;2022-10-16T05:24:34;15.80;;;11.80;;
14060;SDS011;7105;43.616;1.434;2022-10-16T05:27:00;17.47;;;12.47;;
14060;SDS011;7105;43.616;1.434;2022-10-16T05:29:25;16.60;;;13.00;;
14060;SDS011;7105;43.616;1.434;2022-10-16T05:31:51;15.13;;;12.00;;
14060;SDS011;7105;43.616;1.434;2022-10-16T05:34:18;14.83;;;12.33;;
14060;SDS011;7105;43.616;1.434;2022-10-16T05:36:44;13.63;;;11.87;;
14060;SDS011;7105;43.616;1.434;2022-10-16T05:39:10;16.80;;;12.37;;
14060;SDS011;7105;43.616;1.434;2022-10-16T05:41:36;14.17;;;11.70;;
14060;SDS011;7105;43.616;1.434;2022-10-16T05:44:05;14.57;;;11.40;;
14060;SDS011;7105;43.616;1.434;2022-10-16T05:46:31;18.13;;;12.63;;
14060;SDS011;7105;43.616;1.434;2022-10-16T05:48:57;16.43;;;11.60;;
14060;SDS011;7105;43.616;1.434;2022-10-16T05:51:23;16.87;;;11.93;;
14060;SDS011;7105;43.616;1.434;2022-10-16T05:53:49;17.67;;;13.00;;
14060;SDS011;7105;43.616;1.434;2022-10-16T05:56:16;16.33;;;12.17;;
14060;SDS011;7105;43.616;1.434;2022-10-16T05:58:42;16.90;;;12.43;;
14060;SDS011;7105;43.616;1.434;2022-10-16T06:01:13;17.47;;;12.33;;
14060;SDS011;7105;43.616;1.434;2022-10-16T06:03:41;16.43;;;12.60;;
14060;SDS011;7105;43.616;1.434;2022-10-16T06:06:13;18.03;;;12.73;;
14060;SDS011;7105;43.616;1.434;2022-10-16T06:08:41;15.13;;;12.67;;
14060;SDS011;7105;43.616;1.434;2022-10-16T06:11:08;17.60;;;13.10;;
14060;SDS011;7105;43.616;1.434;2022-10-16T06:13:36;18.73;;;13.20;;
14060;SDS011;7105;43.616;1.434;2022-10-16T06:16:03;17.97;;;12.93;;
14060;SDS011;7105;43.616;1.434;2022-10-16T06:18:29;17.83;;;12.93;;
14060;SDS011;7105;43.616;1.434;2022-10-16T06:20:55;21.83;;;13.53;;
14060;SDS011;7105;43.616;1.434;2022-10-16T06:23:21;15.90;;;12.63;;
14060;SDS011;7105;43.616;1.434;2022-10-16T06:25:47;18.67;;;13.47;;
14060;SDS011;7105;43.616;1.434;2022-10-16T06:28:14;17.03;;;13.07;;
14060;SDS011;7105;43.616;1.434;2022-10-16T06:30:40;15.53;;;13.40;;
14060;SDS011;7105;43.616;1.434;2022-10-16T06:33:07;18.07;;;12.97;;
14060;SDS011;7105;43.616;1.434;2022-10-16T06:35:33;16.67;;;13.00;;
14060;SDS011;7105;43.616;1.434;2022-10-16T06:37:59;17.67;;;12.67;;
14060;SDS011;7105;43.616;1.434;2022-10-16T06:40:24;17.33;;;12.80;;
14060;SDS011;7105;43.616;1.434;2022-10-16T06:42:50;16.13;;;13.00;;
14060;SDS011;7105;43.616;1.434;2022-10-16T06:45:17;17.90;;;11.73;;
14060;SDS011;7105;43.616;1.434;2022-10-16T06:47:42;18.50;;;13.30;;
14060;SDS011;7105;43.616;1.434;2022-10-16T06:50:08;15.50;;;12.50;;
14060;SDS011;7105;43.616;1.434;2022-10-16T06:52:34;17.43;;;13.40;;
14060;SDS011;7105;43.616;1.434;2022-10-16T06:54:59;20.40;;;12.90;;
14060;SDS011;7105;43.616;1.434;2022-10-16T06:57:25;14.87;;;11.90;;
14060;SDS011;7105;43.616;1.434;2022-10-16T06:59:51;14.97;;;11.77;;
14060;SDS011;7105;43.616;1.434;2022-10-16T07:02:17;16.17;;;12.93;;
14060;SDS011;7105;43.616;1.434;2022-10-16T07:04:42;16.73;;;12.23;;
14060;SDS011;7105;43.616;1.434;2022-10-16T07:07:08;18.37;;;11.30;;
14060;SDS011;7105;43.616;1.434;2022-10-16T07:09:33;16.17;;;12.47;;
14060;SDS011;7105;43.616;1.434;2022-10-16T07:11:59;17.23;;;12.53;;
14060;SDS011;7105;43.616;1.434;2022-10-16T07:14:25;16.27;;;12.23;;
14060;SDS011;7105;43.616;1.434;2022-10-16T07:16:50;17.35;;;12.10;;
14060;SDS011;7105;43.616;1.434;2022-10-16T07:19:16;14.32;;;11.50;;
14060;SDS011;7105;43.616;1.434;2022-10-16T07:21:43;16.45;;;11.48;;
14060;SDS011;7105;43.616;1.434;2022-10-16T07:24:13;12.48;;;10.68;;
14060;SDS011;7105;43.616;1.434;2022-10-16T07:26:41;14.45;;;11.05;;
14060;SDS011;7105;43.616;1.434;2022-10-16T07:29:19;22.20;;;15.63;;
14060;SDS011;7105;43.616;1.434;2022-10-16T07:31:46;12.93;;;11.18;;
14060;SDS011;7105;43.616;1.434;2022-10-16T07:34:13;14.18;;;10.35;;
14060;SDS011;7105;43.616;1.434;2022-10-16T07:36:40;14.18;;;10.35;;
14060;SDS011;7105;43.616;1.434;2022-10-16T07:39:06;12.20;;;10.80;;
14060;SDS011;7105;43.616;1.434;2022-10-16T07:41:33;12.88;;;10.18;;
14060;SDS011;7105;43.616;1.434;2022-10-16T07:44:01;12.27;;;9.30;;
14060;SDS011;7105;43.616;1.434;2022-10-16T07:46:28;12.80;;;9.77;;
14060;SDS011;7105;43.616;1.434;2022-10-16T07:48:54;13.70;;;9.50;;
14060;SDS011;7105;43.616;1.434;2022-10-16T07:51:23;10.02;;;8.43;;
14060;SDS011;7105;43.616;1.434;2022-10-16T07:53:50;10.15;;;8.38;;
14060;SDS011;7105;43.616;1.434;2022-10-16T07:56:17;8.35;;;7.32;;
14060;SDS011;7105;43.616;1.434;2022-10-16T07:58:43;10.45;;;7.30;;
14060;SDS011;7105;43.616;1.434;2022-10-16T08:01:11;7.78;;;6.93;;
14060;SDS011;7105;43.616;1.434;2022-10-16T08:03:41;7.13;;;6.43;;
14060;SDS011;7105;43.616;1.434;2022-10-16T08:06:07;10.13;;;6.82;;
14060;SDS011;7105;43.616;1.434;2022-10-16T08:08:33;7.45;;;6.72;;
14060;SDS011;7105;43.616;1.434;2022-10-16T08:10:59;9.13;;;6.32;;
14060;SDS011;7105;43.616;1.434;2022-10-16T08:13:24;8.38;;;6.85;;
14060;SDS011;7105;43.616;1.434;2022-10-16T08:15:51;7.60;;;6.80;;
14060;SDS011;7105;43.616;1.434;2022-10-16T08:18:19;7.88;;;6.70;;
14060;SDS011;7105;43.616;1.434;2022-10-16T08:20:44;7.45;;;6.32;;
14060;SDS011;7105;43.616;1.434;2022-10-16T08:23:13;8.95;;;7.18;;
14060;SDS011;7105;43.616;1.434;2022-10-16T08:25:39;10.38;;;7.53;;
14060;SDS011;7105;43.616;1.434;2022-10-16T08:28:07;8.65;;;7.53;;
14060;SDS011;7105;43.616;1.434;2022-10-16T08:30:34;8.15;;;7.20;;
14060;SDS011;7105;43.616;1.434;2022-10-16T08:33:00;9.68;;;7.82;;
14060;SDS011;7105;43.616;1.434;2022-10-16T08:35:26;11.63;;;7.65;;
14060;SDS011;7105;43.616;1.434;2022-10-16T08:37:52;8.50;;;7.07;;
14060;SDS011;7105;43.616;1.434;2022-10-16T08:40:19;10.07;;;7.15;;
14060;SDS011;7105;43.616;1.434;2022-10-16T08:50:42;10.73;;;7.30;;
14060;SDS011;7105;43.616;1.434;2022-10-16T08:53:11;10.05;;;7.65;;
14060;SDS011;7105;43.616;1.434;2022-10-16T08:55:46;10.13;;;7.30;;
14060;SDS011;7105;43.616;1.434;2022-10-16T08:58:16;9.32;;;6.85;;
14060;SDS011;7105;43.616;1.434;2022-10-16T09:00:43;8.93;;;6.78;;
14060;SDS011;7105;43.616;1.434;2022-10-16T09:16:35;12.15;;;8.45;;
14060;SDS011;7105;43.616;1.434;2022-10-16T09:19:14;13.32;;;8.02;;
14060;SDS011;7105;43.616;1.434;2022-10-16T09:21:50;9.23;;;7.55;;
14060;SDS011;7105;43.616;1.434;2022-10-16T09:24:19;10.90;;;7.63;;
14060;SDS011;7105;43.616;1.434;2022-10-16T09:26:47;12.23;;;8.02;;
14060;SDS011;7105;43.616;1.434;2022-10-16T09:29:16;9.00;;;7.93;;
14060;SDS011;7105;43.616;1.434;2022-10-16T09:31:47;8.75;;;7.07;;
14060;SDS011;7105;43.616;1.434;2022-10-16T09:34:17;10.63;;;7.50;;
14060;SDS011;7105;43.616;1.434;2022-10-16T09:36:46;12.88;;;8.27;;
14060;SDS011;7105;43.616;1.434;2022-10-16T09:39:12;11.40;;;7.63;;
14060;SDS011;7105;43.616;1.434;2022-10-16T09:41:38;9.30;;;7.22;;
14060;SDS011;7105;43.616;1.434;2022-10-16T09:44:17;12.30;;;7.38;;
14060;SDS011;7105;43.616;1.434;2022-10-16T09:47:02;11.63;;;7.72;;
14060;SDS011;7105;43.616;1.434;2022-10-16T09:49:29;13.55;;;7.95;;
14060;SDS011;7105;43.616;1.434;2022-10-16T09:52:05;8.98;;;7.25;;
14060;SDS011;7105;43.616;1.434;2022-10-16T09:54:36;11.68;;;7.30;;
14060;SDS011;7105;43.616;1.434;2022-10-16T09:57:05;11.88;;;6.82;;
14060;SDS011;7105;43.616;1.434;2022-10-16T09:59:32;8.38;;;6.80;;
14060;SDS011;7105;43.616;1.434;2022-10-16T10:02:01;11.63;;;7.03;;
14060;SDS011;7105;43.616;1.434;2022-10-16T10:04:37;8.13;;;6.88;;
14060;SDS011;7105;43.616;1.434;2022-10-16T10:07:06;11.82;;;7.30;;
14060;SDS011;7105;43.616;1.434;2022-10-16T10:09:52;9.90;;;7.05;;
14060;SDS011;7105;43.616;1.434;2022-10-16T10:12:21;8.68;;;6.40;;
14060;SDS011;7105;43.616;1.434;2022-10-16T10:14:50;13.50;;;6.97;;
14060;SDS011;7105;43.616;1.434;2022-10-16T10:17:18;12.18;;;6.90;;
14060;SDS011;7105;43.616;1.434;2022-10-16T10:41:13;9.55;;;5.90;;
14060;SDS011;7105;43.616;1.434;2022-10-16T10:44:01;8.88;;;6.35;;
14060;SDS011;7105;43.616;1.434;2022-10-16T10:46:32;8.35;;;6.38;;
14060;SDS011;7105;43.616;1.434;2022-10-16T10:51:58;8.32;;;5.80;;
14060;SDS011;7105;43.616;1.434;2022-10-16T10:55:21;7.22;;;5.75;;
14060;SDS011;7105;43.616;1.434;2022-10-16T11:01:09;15.02;;;10.82;;
14060;SDS011;7105;43.616;1.434;2022-10-16T11:06:50;9.48;;;7.20;;
14060;SDS011;7105;43.616;1.434;2022-10-16T11:09:25;11.13;;;8.23;;
14060;SDS011;7105;43.616;1.434;2022-10-16T11:11:59;9.00;;;5.88;;
14060;SDS011;7105;43.616;1.434;2022-10-16T11:15:05;9.90;;;5.85;;
14060;SDS011;7105;43.616;1.434;2022-10-16T11:17:52;10.43;;;6.25;;
14060;SDS011;7105;43.616;1.434;2022-10-16T11:20:27;9.88;;;6.13;;
14060;SDS011;7105;43.616;1.434;2022-10-16T11:25:50;12.02;;;5.85;;
14060;SDS011;7105;43.616;1.434;2022-10-16T11:30:58;10.02;;;6.03;;
14060;SDS011;7105;43.616;1.434;2022-10-16T11:33:47;10.70;;;5.72;;
14060;SDS011;7105;43.616;1.434;2022-10-16T11:36:27;7.93;;;5.50;;
14060;SDS011;7105;43.616;1.434;2022-10-16T11:39:04;6.95;;;5.30;;
14060;SDS011;7105;43.616;1.434;2022-10-16T11:47:02;8.88;;;5.30;;
14060;SDS011;7105;43.616;1.434;2022-10-16T11:49:30;8.63;;;5.25;;
14060;SDS011;7105;43.616;1.434;2022-10-16T11:52:17;7.03;;;5.35;;
14060;SDS011;7105;43.616;1.434;2022-10-16T11:57:24;8.63;;;5.72;;
14060;SDS011;7105;43.616;1.434;2022-10-16T12:00:02;5.60;;;4.43;;
14060;SDS011;7105;43.616;1.434;2022-10-16T12:02:58;7.30;;;4.90;;
14060;SDS011;7105;43.616;1.434;2022-10-16T12:08:09;9.02;;;4.82;;
14060;SDS011;7105;43.616;1.434;2022-10-16T12:10:40;8.15;;;4.90;;
14060;SDS011;7105;43.616;1.434;2022-10-16T12:15:51;7.72;;;5.10;;
14060;SDS011;7105;43.616;1.434;2022-10-16T12:18:28;7.30;;;4.63;;
14060;SDS011;7105;43.616;1.434;2022-10-16T12:20:55;7.43;;;4.80;;
14060;SDS011;7105;43.616;1.434;2022-10-16T12:23:29;7.47;;;4.80;;
14060;SDS011;7105;43.616;1.434;2022-10-16T12:25:56;8.65;;;4.30;;
14060;SDS011;7105;43.616;1.434;2022-10-16T12:28:27;8.73;;;4.25;;
14060;SDS011;7105;43.616;1.434;2022-10-16T12:31:01;7.15;;;4.38;;
14060;SDS011;7105;43.616;1.434;2022-10-16T12:33:33;7.05;;;3.97;;
14060;SDS011;7105;43.616;1.434;2022-10-16T12:36:15;5.03;;;4.50;;
14060;SDS011;7105;43.616;1.434;2022-10-16T12:38:52;6.50;;;4.45;;
14060;SDS011;7105;43.616;1.434;2022-10-16T12:41:28;8.70;;;4.15;;
14060;SDS011;7105;43.616;1.434;2022-10-16T12:44:05;7.45;;;3.83;;
14060;SDS011;7105;43.616;1.434;2022-10-16T12:46:46;5.70;;;3.60;;
14060;SDS011;7105;43.616;1.434;2022-10-16T12:51:38;4.47;;;3.30;;
14060;SDS011;7105;43.616;1.434;2022-10-16T12:54:10;5.55;;;3.50;;
14060;SDS011;7105;43.616;1.434;2022-10-16T13:01:50;7.05;;;3.53;;
14060;SDS011;7105;43.616;1.434;2022-10-16T13:08:19;7.22;;;3.22;;
14060;SDS011;7105;43.616;1.434;2022-10-16T13:10:41;5.50;;;3.30;;
14060;SDS011;7105;43.616;1.434;2022-10-16T13:13:18;6.00;;;3.47;;
14060;SDS011;7105;43.616;1.434;2022-10-16T13:21:51;7.28;;;3.05;;
14060;SDS011;7105;43.616;1.434;2022-10-16T13:30:41;6.43;;;3.15;;
14060;SDS011;7105;43.616;1.434;2022-10-16T13:35:46;6.65;;;3.20;;
14060;SDS011;7105;43.616;1.434;2022-10-16T13:38:15;5.90;;;2.95;;
14060;SDS011;7105;43.616;1.434;2022-10-16T13:43:22;8.38;;;2.90;;
14060;SDS011;7105;43.616;1.434;2022-10-16T13:46:00;6.40;;;2.90;;
14060;SDS011;7105;43.616;1.434;2022-10-16T13:48:28;5.63;;;2.70;;
14060;SDS011;7105;43.616;1.434;2022-10-16T13:50:58;6.53;;;2.78;;
14060;SDS011;7105;43.616;1.434;2022-10-16T13:53:24;5.38;;;2.80;;
14060;SDS011;7105;43.616;1.434;2022-10-16T13:55:50;6.25;;;2.85;;
14060;SDS011;7105;43.616;1.434;2022-10-16T13:58:16;5.18;;;3.10;;
14060;SDS011;7105;43.616;1.434;2022-10-16T14:00:52;8.10;;;3.28;;
14060;SDS011;7105;43.616;1.434;2022-10-16T14:03:27;4.78;;;2.90;;
14060;SDS011;7105;43.616;1.434;2022-10-16T14:05:55;7.25;;;2.97;;
14060;SDS011;7105;43.616;1.434;2022-10-16T14:08:24;5.90;;;3.10;;
14060;SDS011;7105;43.616;1.434;2022-10-16T14:10:56;5.63;;;3.00;;
14060;SDS011;7105;43.616;1.434;2022-10-16T14:13:29;5.35;;;3.10;;
14060;SDS011;7105;43.616;1.434;2022-10-16T14:16:10;4.63;;;2.92;;
14060;SDS011;7105;43.616;1.434;2022-10-16T14:18:41;6.13;;;2.83;;
14060;SDS011;7105;43.616;1.434;2022-10-16T14:21:15;5.55;;;3.05;;
14060;SDS011;7105;43.616;1.434;2022-10-16T14:23:41;5.90;;;3.17;;
14060;SDS011;7105;43.616;1.434;2022-10-16T14:28:34;5.38;;;3.15;;
14060;SDS011;7105;43.616;1.434;2022-10-16T14:31:01;9.23;;;4.13;;
14060;SDS011;7105;43.616;1.434;2022-10-16T14:33:44;6.70;;;3.13;;
14060;SDS011;7105;43.616;1.434;2022-10-16T14:38:41;6.93;;;3.20;;
14060;SDS011;7105;43.616;1.434;2022-10-16T14:41:12;5.25;;;2.92;;
14060;SDS011;7105;43.616;1.434;2022-10-16T14:43:39;6.90;;;3.13;;
14060;SDS011;7105;43.616;1.434;2022-10-16T14:46:13;6.25;;;3.30;;
14060;SDS011;7105;43.616;1.434;2022-10-16T14:48:46;6.32;;;2.80;;
14060;SDS011;7105;43.616;1.434;2022-10-16T14:51:16;4.18;;;2.83;;
14060;SDS011;7105;43.616;1.434;2022-10-16T14:53:42;7.28;;;3.47;;
14060;SDS011;7105;43.616;1.434;2022-10-16T14:56:09;7.25;;;3.30;;
14060;SDS011;7105;43.616;1.434;2022-10-16T14:58:41;8.50;;;3.17;;
14060;SDS011;7105;43.616;1.434;2022-10-16T15:01:07;7.82;;;2.90;;
14060;SDS011;7105;43.616;1.434;2022-10-16T15:03:36;5.55;;;3.00;;
14060;SDS011;7105;43.616;1.434;2022-10-16T15:06:02;6.15;;;3.05;;
14060;SDS011;7105;43.616;1.434;2022-10-16T15:08:28;7.10;;;3.00;;
14060;SDS011;7105;43.616;1.434;2022-10-16T15:10:54;8.68;;;3.05;;
14060;SDS011;7105;43.616;1.434;2022-10-16T15:13:19;10.82;;;3.33;;
14060;SDS011;7105;43.616;1.434;2022-10-16T15:15:46;6.80;;;3.33;;
14060;SDS011;7105;43.616;1.434;2022-10-16T15:18:14;6.78;;;3.17;;
14060;SDS011;7105;43.616;1.434;2022-10-16T15:20:44;5.80;;;3.50;;
14060;SDS011;7105;43.616;1.434;2022-10-16T15:23:13;7.75;;;3.65;;
14060;SDS011;7105;43.616;1.434;2022-10-16T15:28:08;5.80;;;3.20;;
14060;SDS011;7105;43.616;1.434;2022-10-16T15:30:34;8.02;;;2.95;;
14060;SDS011;7105;43.616;1.434;2022-10-16T15:33:01;4.93;;;3.22;;
14060;SDS011;7105;43.616;1.434;2022-10-16T15:35:28;7.63;;;3.10;;
14060;SDS011;7105;43.616;1.434;2022-10-16T15:37:53;8.45;;;3.55;;
14060;SDS011;7105;43.616;1.434;2022-10-16T15:40:20;8.55;;;3.38;;
14060;SDS011;7105;43.616;1.434;2022-10-16T15:42:46;8.55;;;3.47;;
14060;SDS011;7105;43.616;1.434;2022-10-16T15:45:12;6.57;;;3.25;;
14060;SDS011;7105;43.616;1.434;2022-10-16T15:47:38;10.00;;;3.70;;
14060;SDS011;7105;43.616;1.434;2022-10-16T15:50:06;7.90;;;3.13;;
14060;SDS011;7105;43.616;1.434;2022-10-16T15:52:32;4.53;;;2.95;;
14060;SDS011;7105;43.616;1.434;2022-10-16T15:54:58;5.90;;;3.28;;
14060;SDS011;7105;43.616;1.434;2022-10-16T15:57:24;8.07;;;3.30;;
14060;SDS011;7105;43.616;1.434;2022-10-16T15:59:50;5.53;;;3.10;;
14060;SDS011;7105;43.616;1.434;2022-10-16T16:02:15;6.80;;;3.58;;
14060;SDS011;7105;43.616;1.434;2022-10-16T16:04:41;7.30;;;3.70;;
14060;SDS011;7105;43.616;1.434;2022-10-16T16:07:07;5.18;;;3.08;;
14060;SDS011;7105;43.616;1.434;2022-10-16T16:09:33;4.93;;;3.17;;
14060;SDS011;7105;43.616;1.434;2022-10-16T16:11:58;5.57;;;3.70;;
14060;SDS011;7105;43.616;1.434;2022-10-16T16:14:26;7.93;;;3.55;;
14060;SDS011;7105;43.616;1.434;2022-10-16T16:16:55;7.50;;;3.30;;
14060;SDS011;7105;43.616;1.434;2022-10-16T16:19:21;6.80;;;2.95;;
14060;SDS011;7105;43.616;1.434;2022-10-16T16:21:48;8.02;;;3.53;;
14060;SDS011;7105;43.616;1.434;2022-10-16T16:24:14;7.78;;;3.75;;
14060;SDS011;7105;43.616;1.434;2022-10-16T16:26:39;7.20;;;3.35;;
14060;SDS011;7105;43.616;1.434;2022-10-16T16:29:09;7.30;;;3.60;;
14060;SDS011;7105;43.616;1.434;2022-10-16T16:31:38;6.93;;;3.42;;
14060;SDS011;7105;43.616;1.434;2022-10-16T16:34:03;7.25;;;3.60;;
14060;SDS011;7105;43.616;1.434;2022-10-16T16:36:30;6.93;;;3.55;;
14060;SDS011;7105;43.616;1.434;2022-10-16T16:38:56;7.95;;;3.78;;
14060;SDS011;7105;43.616;1.434;2022-10-16T16:41:24;6.93;;;3.65;;
14060;SDS011;7105;43.616;1.434;2022-10-16T16:43:51;7.00;;;3.60;;
14060;SDS011;7105;43.616;1.434;2022-10-16T16:46:18;5.97;;;3.45;;
14060;SDS011;7105;43.616;1.434;2022-10-16T16:48:44;4.80;;;3.70;;
14060;SDS011;7105;43.616;1.434;2022-10-16T16:51:15;10.20;;;3.42;;
14060;SDS011;7105;43.616;1.434;2022-10-16T16:53:46;9.07;;;4.05;;
14060;SDS011;7105;43.616;1.434;2022-10-16T16:56:16;10.18;;;3.50;;
14060;SDS011;7105;43.616;1.434;2022-10-16T16:58:46;9.27;;;3.63;;
14060;SDS011;7105;43.616;1.434;2022-10-16T17:01:14;7.10;;;3.58;;